Time;durP1;ratioP1;P1;durP2;ratioP2;P2;SDS_P1;SDS_P2;PMS_P1;PMS_P2;Temp;Humidity;BMP_temperature;BMP_pressure;BME280_temperature;BME280_humidity;BME280_pressure;Samples;Min_cycle;Max_cycle;Signal;HPM_P1;HPM_P2
2022/10/04 00:01:44;;;;;;;5.72;3.08;;;;;;;10.40;82.94;100363.69;5010184;28;20103;-76
2022/10/04 00:04:12;;;;;;;6.45;3.83;;;;;;;10.70;80.54;100407.41;5015998;28;20053;-76
2022/10/04 00:06:48;;;;;;;7.78;3.17;;;;;;;10.95;81.13;100468.63;5027691;28;20057;-76
2022/10/04 00:09:18;;;;;;;6.05;3.13;;;;;;;10.84;81.68;100473.03;5026550;28;20054;-75
2022/10/04 00:11:46;;;;;;;6.00;3.03;;;;;;;10.43;82.15;100382.03;5013467;28;20053;-75
2022/10/04 00:14:21;;;;;;;6.40;3.00;;;;;;;10.89;80.91;100455.50;5025005;28;20068;-75
2022/10/04 00:16:47;;;;;;;6.47;3.22;;;;;;;10.96;83.15;100459.88;5019542;28;20060;-75
2022/10/04 00:19:16;;;;;;;7.07;2.85;;;;;;;11.02;81.51;100490.50;5027411;28;20079;-75
2022/10/04 00:22:12;;;;;;;8.02;3.42;;;;;;;10.85;84.23;100463.41;5020220;28;20042;-75
2022/10/04 00:25:06;;;;;;;6.55;3.25;;;;;;;10.99;85.19;100485.25;5006133;28;20041;-75
2022/10/04 00:27:36;;;;;;;20.15;3.78;;;;;;;11.07;82.78;100501.88;5009526;28;20042;-75
2022/10/04 00:30:01;;;;;;;10.38;4.38;;;;;;;11.11;82.11;100493.13;5026433;28;20045;-75
2022/10/04 00:32:38;;;;;;;7.40;3.83;;;;;;;10.67;81.73;100446.75;5026326;28;20054;-75
2022/10/04 00:35:23;;;;;;;6.50;2.72;;;;;;;11.01;81.55;100487.91;5015091;28;20052;-76
2022/10/04 00:38:05;;;;;;;5.35;2.75;;;;;;;10.63;80.82;100458.16;5024338;28;20025;-75
2022/10/04 00:40:40;;;;;;;7.13;2.63;;;;;;;10.38;80.35;100433.63;5027873;28;20033;-77
2022/10/04 00:43:12;;;;;;;5.65;2.83;;;;;;;10.64;81.07;100454.63;5025128;28;20485;-75
2022/10/04 00:45:43;;;;;;;7.60;3.58;;;;;;;10.85;80.92;100481.75;5026701;28;20093;-76
2022/10/04 00:48:33;;;;;;;5.43;2.40;;;;;;;10.67;80.98;100493.13;5008460;28;20489;-75
2022/10/04 00:51:17;;;;;;;5.72;2.90;;;;;;;10.83;82.76;100486.13;5014330;28;20060;-77
2022/10/04 00:54:12;;;;;;;11.38;2.53;;;;;;;10.89;82.72;100483.53;5019949;28;20061;-76
2022/10/04 00:56:54;;;;;;;5.28;2.55;;;;;;;10.12;82.43;100358.41;4998327;28;20125;-75
2022/10/04 00:59:28;;;;;;;10.97;3.07;;;;;;;10.74;81.04;100455.50;5027090;28;20033;-76
2022/10/04 01:02:15;;;;;;;4.97;2.70;;;;;;;10.65;82.10;100448.53;5026781;28;20037;-76
2022/10/04 01:05:05;;;;;;;4.28;2.17;;;;;;;10.20;82.57;100373.25;5019218;28;20032;-76
2022/10/04 01:07:38;;;;;;;6.65;3.35;;;;;;;10.77;80.56;100473.91;5015906;28;20112;-77
2022/10/04 01:10:12;;;;;;;6.07;2.92;;;;;;;10.82;80.65;100498.41;5008814;28;20037;-76
2022/10/04 01:13:11;;;;;;;4.28;2.55;;;;;;;10.76;81.25;100499.25;5024505;28;20761;-76
2022/10/04 01:15:43;;;;;;;4.60;2.65;;;;;;;10.68;81.90;100473.91;5026493;28;20088;-76
2022/10/04 01:18:25;;;;;;;3.10;2.17;;;;;;;10.10;80.67;100395.97;5026862;28;20120;-75
2022/10/04 01:21:19;;;;;;;5.78;2.40;;;;;;;10.04;81.18;100403.81;5025932;28;20041;-76
2022/10/04 01:23:56;;;;;;;4.35;2.28;;;;;;;10.67;82.36;100514.13;5015106;28;20124;-75
2022/10/04 01:26:31;;;;;;;5.20;2.65;;;;;;;10.68;81.87;100508.00;5008349;28;20048;-75
2022/10/04 01:29:01;;;;;;;10.63;2.80;;;;;;;10.20;80.87;100436.19;5026492;28;20576;-75
2022/10/04 01:31:27;;;;;;;5.57;3.00;;;;;;;9.93;82.98;100386.34;5027272;28;20064;-75
2022/10/04 01:33:54;;;;;;;8.07;2.25;;;;;;;10.61;83.20;100516.75;5025748;28;20053;-75
2022/10/04 01:36:20;;;;;;;5.90;2.83;;;;;;;9.83;83.87;100392.44;5026477;28;20510;-76
2022/10/04 01:38:46;;;;;;;7.07;3.25;;;;;;;9.93;82.98;100409.06;5026366;28;20029;-76
2022/10/04 01:41:16;;;;;;;7.40;3.40;;;;;;;10.50;83.77;100511.47;5028703;28;20386;-76
2022/10/04 01:43:48;;;;;;;4.85;3.17;;;;;;;9.79;83.61;100400.28;5030685;28;20068;-76
2022/10/04 01:46:21;;;;;;;5.22;2.63;;;;;;;10.52;85.41;100514.97;5026930;28;20037;-77
2022/10/04 01:48:47;;;;;;;8.05;3.63;;;;;;;10.37;84.74;100513.19;5029972;28;20037;-76
2022/10/04 01:51:23;;;;;;;6.10;3.13;;;;;;;9.63;85.90;100400.22;5025965;28;20553;-75
2022/10/04 01:54:05;;;;;;;8.40;3.10;;;;;;;10.33;86.48;100521.94;5023153;28;20072;-76
2022/10/04 01:56:40;;;;;;;5.78;2.83;;;;;;;10.23;87.18;100513.13;5021742;28;20038;-75
2022/10/04 01:59:15;;;;;;;6.60;3.25;;;;;;;9.44;86.30;100388.78;5022048;28;20088;-75
2022/10/04 02:01:48;;;;;;;5.85;2.50;;;;;;;10.21;86.54;100521.84;5030258;28;20029;-77
2022/10/04 02:04:21;;;;;;;7.97;3.33;;;;;;;9.41;86.99;100401.00;5029475;28;20029;-75
2022/10/04 02:06:52;;;;;;;9.52;3.30;;;;;;;10.03;88.03;100525.28;5029696;28;20065;-76
2022/10/04 02:09:23;;;;;;;6.20;2.55;;;;;;;9.54;88.23;100444.72;5029372;28;20056;-76
2022/10/04 02:11:51;;;;;;;8.52;3.33;;;;;;;10.11;87.65;100531.44;5009789;28;20127;-76
2022/10/04 02:14:21;;;;;;;5.85;3.17;;;;;;;9.98;88.49;100509.53;5030245;28;20125;-77
2022/10/04 02:16:52;;;;;;;5.65;2.97;;;;;;;10.03;87.76;100515.69;5032120;28;20025;-76
2022/10/04 02:19:22;;;;;;;5.80;2.78;;;;;;;9.86;87.84;100507.75;5030510;28;20033;-76
2022/10/04 02:21:49;;;;;;;8.57;3.33;;;;;;;9.63;88.44;100472.72;5025331;28;20058;-76
2022/10/04 02:24:15;;;;;;;4.95;2.75;;;;;;;9.97;87.32;100536.59;5029738;28;20049;-76
2022/10/04 02:26:41;;;;;;;6.82;3.15;;;;;;;9.84;88.11;100527.81;5012089;28;20037;-75
2022/10/04 02:29:09;;;;;;;7.80;2.88;;;;;;;9.98;87.85;100534.88;5029825;28;20415;-77
2022/10/04 02:34:22;;;;;;;12.05;3.53;;;;;;;9.34;87.64;100441.09;5024744;28;20504;-75
2022/10/04 02:36:50;;;;;;;5.15;3.03;;;;;;;9.92;88.30;100535.72;5024997;28;20063;-76
2022/10/04 02:39:25;;;;;;;5.90;3.17;;;;;;;9.87;87.68;100543.56;5011551;28;20124;-75
2022/10/04 02:42:03;;;;;;;13.60;3.03;;;;;;;9.32;88.28;100464.69;5029695;28;20060;-75
2022/10/04 02:45:04;;;;;;;9.23;2.78;;;;;;;9.82;86.53;100552.28;5029283;28;20137;-75
2022/10/04 02:47:49;;;;;;;9.20;3.17;;;;;;;9.06;88.48;100420.00;4996603;28;20050;-74
2022/10/04 02:50:38;;;;;;;5.60;3.63;;;;;;;9.47;89.08;100492.69;5025511;28;20041;-75
2022/10/04 02:53:28;;;;;;;9.32;4.28;;;;;;;9.62;89.77;100523.34;5016430;28;20041;-76
2022/10/04 02:55:55;;;;;;;6.65;3.28;;;;;;;9.17;88.23;100454.09;5015891;28;20038;-76
2022/10/04 02:58:22;;;;;;;12.23;7.63;;;;;;;8.90;88.82;100424.28;5024096;28;20778;-76
2022/10/04 03:00:59;;;;;;;8.15;4.75;;;;;;;9.13;89.27;100462.78;5029230;28;20061;-75
2022/10/04 03:03:26;;;;;;;9.52;7.35;;;;;;;9.70;89.38;100555.72;5007311;28;20056;-75
2022/10/04 03:05:58;;;;;;;6.78;4.30;;;;;;;9.37;90.16;100527.56;5025187;28;20042;-75
2022/10/04 03:08:24;;;;;;;14.77;4.88;;;;;;;8.86;90.59;100448.66;5029566;28;20049;-74
2022/10/04 03:10:50;;;;;;;7.25;4.53;;;;;;;8.95;89.30;100461.81;5025760;28;20034;-77
2022/10/04 03:13:19;;;;;;;7.22;4.07;;;;;;;9.52;89.53;100572.19;5027437;28;20520;-76
2022/10/04 03:15:48;;;;;;;7.13;4.15;;;;;;;9.37;90.35;100541.53;5028895;28;20056;-75
2022/10/04 03:18:14;;;;;;;7.53;3.67;;;;;;;9.54;90.38;100570.44;5027733;28;20053;-75
2022/10/04 03:20:40;;;;;;;4.55;2.75;;;;;;;9.51;88.45;100584.41;5027237;28;20058;-76
2022/10/04 03:23:08;;;;;;;8.25;3.53;;;;;;;8.95;88.06;100464.44;5020897;28;20037;-75
2022/10/04 03:25:59;;;;;;;5.55;2.95;;;;;;;9.57;89.33;100578.31;5029335;28;20047;-76
2022/10/04 03:28:27;;;;;;;5.60;3.47;;;;;;;8.93;89.23;100475.75;4982484;28;20139;-75
2022/10/04 03:30:54;;;;;;;5.43;3.50;;;;;;;8.92;89.64;100466.13;5015714;28;20037;-75
2022/10/04 03:33:23;;;;;;;8.07;4.22;;;;;;;9.24;87.93;100545.78;5027743;28;20044;-75
2022/10/04 03:35:57;;;;;;;15.07;2.83;;;;;;;9.20;87.50;100527.41;5023616;28;20409;-75
2022/10/04 03:38:25;;;;;;;8.20;3.80;;;;;;;9.60;87.70;100583.59;5023949;28;20049;-75
2022/10/04 03:40:55;;;;;;;7.75;4.18;;;;;;;9.35;88.57;100537.16;5026069;28;20129;-77
2022/10/04 03:43:25;;;;;;;7.93;4.85;;;;;;;9.61;89.55;100576.59;4995662;28;20037;-76
2022/10/04 03:45:51;;;;;;;9.13;3.67;;;;;;;8.96;89.95;100487.09;5020054;28;20053;-77
2022/10/04 03:48:34;;;;;;;6.43;3.83;;;;;;;8.88;88.67;100470.50;5027969;28;20045;-75
2022/10/04 03:51:03;;;;;;;6.93;3.85;;;;;;;9.42;87.88;100580.84;5028065;28;20083;-75
2022/10/04 03:53:35;;;;;;;8.27;3.65;;;;;;;9.48;88.89;100596.59;5027822;28;20041;-74
2022/10/04 03:56:02;;;;;;;7.45;3.55;;;;;;;9.39;89.70;100604.38;5024159;28;20482;-76
2022/10/04 03:58:30;;;;;;;8.85;3.90;;;;;;;9.28;89.98;100572.88;5023375;28;20045;-76
2022/10/04 04:01:01;;;;;;;6.30;3.90;;;;;;;8.94;91.66;100501.03;5023151;28;20042;-76
2022/10/04 04:03:31;;;;;;;9.98;4.72;;;;;;;8.83;90.86;100487.91;5027625;28;20204;-77
2022/10/04 04:06:01;;;;;;;13.38;4.60;;;;;;;9.35;90.19;100585.16;5027757;28;20045;-76
2022/10/04 04:08:33;;;;;;;14.15;6.70;;;;;;;9.51;89.01;100625.44;5017519;28;20124;-77
2022/10/04 04:11:01;;;;;;;14.77;4.35;;;;;;;8.81;90.17;100492.22;5019441;28;20048;-76
2022/10/04 04:13:49;;;;;;;9.10;5.35;;;;;;;9.50;91.83;100626.28;5026766;28;20049;-77
2022/10/04 04:16:17;;;;;;;9.05;4.88;;;;;;;8.68;90.75;100506.94;5027787;28;20100;-75
2022/10/04 04:18:45;;;;;;;6.78;3.88;;;;;;;9.44;90.75;100636.75;5025767;28;20096;-76
2022/10/04 04:21:17;;;;;;;8.75;4.70;;;;;;;9.26;90.13;100595.56;5026885;28;20041;-75
2022/10/04 04:23:55;;;;;;;11.60;4.93;;;;;;;8.85;90.91;100528.91;5027586;28;20041;-76
2022/10/04 04:26:44;;;;;;;8.00;5.10;;;;;;;9.48;91.42;100631.53;5026195;28;20049;-76
2022/10/04 04:29:10;;;;;;;8.75;3.90;;;;;;;9.49;90.22;100642.88;5024746;28;20050;-77
2022/10/04 04:31:50;;;;;;;10.20;4.97;;;;;;;8.67;88.11;100505.19;5027402;28;20380;-77
2022/10/04 04:34:18;;;;;;;7.38;4.72;;;;;;;9.58;88.25;100636.84;5003803;28;20433;-76
2022/10/04 04:36:44;;;;;;;7.55;3.88;;;;;;;9.27;88.51;100607.75;5013755;28;20115;-76
2022/10/04 04:39:33;;;;;;;11.85;6.65;;;;;;;9.46;88.13;100642.88;5021024;28;20381;-76
2022/10/04 04:42:22;;;;;;;7.97;3.85;;;;;;;9.48;87.22;100648.97;5023791;28;20057;-77
2022/10/04 04:45:00;;;;;;;6.80;3.75;;;;;;;8.79;87.26;100514.88;5014390;28;20053;-76
2022/10/04 04:47:26;;;;;;;6.47;3.63;;;;;;;9.54;87.30;100672.59;5022420;28;20045;-77
2022/10/04 04:49:58;;;;;;;6.82;3.72;;;;;;;9.65;87.29;100657.00;5025587;28;20029;-76
2022/10/04 04:52:27;;;;;;;7.07;3.83;;;;;;;9.77;85.72;100678.03;5026779;28;20045;-76
2022/10/04 04:54:54;;;;;;;6.75;3.83;;;;;;;9.90;87.53;100694.72;5026138;28;20045;-77
2022/10/04 04:57:21;;;;;;;11.88;3.60;;;;;;;9.03;84.43;100558.69;5017426;28;20145;-77
2022/10/04 04:59:52;;;;;;;10.15;4.03;;;;;;;9.22;85.74;100555.34;5025670;28;20060;-79
2022/10/04 05:02:30;;;;;;;7.85;3.70;;;;;;;9.91;83.77;100694.72;5021370;28;20088;-75
2022/10/04 05:05:20;;;;;;;8.80;3.35;;;;;;;10.11;83.81;100689.66;5025464;28;20381;-76
2022/10/04 05:07:46;;;;;;;10.48;3.67;;;;;;;9.93;83.18;100686.91;5016129;28;20065;-77
2022/10/04 05:10:31;;;;;;;7.95;3.33;;;;;;;9.97;83.42;100665.06;5024993;28;20032;-76
2022/10/04 05:12:59;;;;;;;19.38;5.20;;;;;;;9.35;82.43;100569.44;5007935;28;20792;-77
2022/10/04 05:15:26;;;;;;;6.47;3.42;;;;;;;9.64;81.99;100587.09;5040787;28;20045;-76
2022/10/04 05:17:52;;;;;;;7.85;3.50;;;;;;;9.88;82.81;100629.19;5008243;28;20131;-76
2022/10/04 05:20:18;;;;;;;14.88;3.08;;;;;;;10.45;82.22;100726.56;5020791;28;20038;-75
2022/10/04 05:22:48;;;;;;;13.00;4.68;;;;;;;9.78;81.23;100645.72;5011044;28;20544;-74
2022/10/04 05:25:28;;;;;;;7.20;3.03;;;;;;;10.45;81.33;100731.81;5026381;28;20034;-77
2022/10/04 05:27:55;;;;;;;11.25;4.38;;;;;;;9.99;82.76;100638.88;5012836;28;20045;-76
2022/10/04 05:31:04;;;;;;;5.18;3.33;;;;;;;10.72;82.71;100757.34;5026633;28;20095;-77
2022/10/04 05:33:45;;;;;;;8.15;3.92;;;;;;;10.60;81.62;100764.25;4928730;29;20370;-77
2022/10/04 05:36:12;;;;;;;5.65;3.00;;;;;;;10.76;82.27;100761.72;5017678;28;20508;-76
2022/10/04 05:39:01;;;;;;;15.30;3.67;;;;;;;10.84;83.17;100768.75;5022876;28;20068;-76
2022/10/04 05:41:41;;;;;;;11.63;4.38;;;;;;;10.74;81.98;100768.69;5026020;28;20047;-76
2022/10/04 05:44:27;;;;;;;20.05;3.53;;;;;;;10.76;81.95;100760.84;5021060;28;20053;-77
2022/10/04 05:46:55;;;;;;;10.35;3.63;;;;;;;10.20;81.03;100654.72;5026225;28;20393;-76
2022/10/04 05:49:24;;;;;;;7.95;3.92;;;;;;;10.90;82.86;100781.91;5026133;28;20029;-76
2022/10/04 05:52:00;;;;;;;8.98;3.75;;;;;;;11.14;80.28;100791.63;5025676;28;20041;-76
2022/10/04 05:54:30;;;;;;;9.55;4.70;;;;;;;10.67;78.63;100690.81;5025782;28;20517;-76
2022/10/04 05:57:20;;;;;;;5.95;3.00;;;;;;;11.30;77.90;100788.19;5011058;28;20046;-75
2022/10/04 06:00:14;;;;;;;6.43;3.90;;;;;;;11.23;79.77;100796.06;5025941;28;20060;-76
2022/10/04 06:02:45;;;;;;;7.18;3.42;;;;;;;11.45;78.26;100799.59;5014817;28;20037;-76
2022/10/04 06:05:22;;;;;;;22.33;4.75;;;;;;;11.35;79.46;100762.81;5013361;28;20061;-77
2022/10/04 06:08:15;;;;;;;10.93;4.57;;;;;;;11.54;78.97;100771.63;5021142;28;20040;-75
2022/10/04 06:10:50;;;;;;;9.48;5.65;;;;;;;11.63;78.95;100773.38;4995671;28;20048;-76
2022/10/04 06:13:43;;;;;;;13.95;3.33;;;;;;;11.04;78.29;100701.44;5012867;28;20065;-75
2022/10/04 06:16:11;;;;;;;7.37;4.20;;;;;;;11.78;78.74;100828.63;5024922;28;20053;-77
2022/10/04 06:18:52;;;;;;;7.88;3.80;;;;;;;11.92;77.78;100812.91;5007523;28;20049;-75
2022/10/04 06:21:28;;;;;;;9.68;4.55;;;;;;;12.05;78.80;100813.75;5025414;28;20048;-76
2022/10/04 06:24:24;;;;;;;9.77;3.70;;;;;;;12.22;78.45;100819.03;5026003;28;20144;-75
2022/10/04 06:27:01;;;;;;;7.53;3.58;;;;;;;12.21;75.18;100814.66;5019784;28;20052;-75
2022/10/04 06:29:32;;;;;;;13.57;4.18;;;;;;;12.21;75.10;100812.88;5028617;28;20041;-76
2022/10/04 06:32:23;;;;;;;12.13;3.97;;;;;;;12.54;76.60;100833.91;5029386;28;20042;-79
2022/10/04 06:35:05;;;;;;;10.63;3.92;;;;;;;12.70;75.77;100845.31;5022119;28;20032;-76
2022/10/04 06:38:01;;;;;;;7.43;3.95;;;;;;;12.72;72.97;100844.44;5029789;28;20028;-75
2022/10/04 06:40:36;;;;;;;10.23;3.50;;;;;;;12.33;75.77;100772.53;5024133;28;20100;-75
2022/10/04 06:43:04;;;;;;;9.65;4.47;;;;;;;12.73;74.88;100851.44;5029192;28;20069;-74
2022/10/04 06:45:50;;;;;;;12.98;4.75;;;;;;;12.36;74.65;100759.41;5029014;28;20045;-75
2022/10/04 06:48:34;;;;;;;6.45;3.90;;;;;;;12.87;74.35;100861.94;5022575;28;20038;-75
2022/10/04 06:51:33;;;;;;;10.50;4.57;;;;;;;12.91;73.40;100870.72;5027602;28;20072;-77
2022/10/04 06:54:17;;;;;;;14.98;4.88;;;;;;;12.95;74.85;100860.19;5025704;28;20053;-75
2022/10/04 06:57:21;;;;;;;10.57;4.07;;;;;;;13.19;72.14;100861.88;5005335;28;20108;-77
2022/10/04 07:00:07;;;;;;;16.13;4.55;;;;;;;12.42;73.20;100761.13;5023745;28;20056;-75
2022/10/04 07:02:49;;;;;;;14.57;4.00;;;;;;;13.05;70.77;100846.09;5009995;28;20050;-77
2022/10/04 07:05:29;;;;;;;10.18;2.80;;;;;;;13.37;68.94;100876.78;5015838;28;20050;-77
2022/10/04 07:08:05;;;;;;;5.75;2.30;;;;;;;13.38;69.67;100853.91;5028190;28;20095;-76
2022/10/04 07:11:01;;;;;;;6.32;1.77;;;;;;;13.20;68.50;100881.19;5029321;28;20041;-76
2022/10/04 07:13:26;;;;;;;4.18;1.70;;;;;;;13.50;68.42;100875.81;5021924;28;20521;-77
2022/10/04 07:16:07;;;;;;;4.40;2.25;;;;;;;13.61;69.31;100890.72;5026399;28;20184;-76
2022/10/04 07:18:43;;;;;;;6.35;2.30;;;;;;;13.75;68.75;100861.66;5026363;28;20041;-76
2022/10/04 07:21:14;;;;;;;8.93;2.50;;;;;;;14.06;66.36;100889.56;5028091;28;20064;-75
2022/10/04 07:24:02;;;;;;;2.25;0.80;;;;;;;13.82;64.06;100890.59;5028981;28;20049;-74
2022/10/04 07:26:36;;;;;;;8.55;1.42;;;;;;;13.74;65.64;100897.66;5010422;28;20395;-76
2022/10/04 07:29:21;;;;;;;3.05;1.55;;;;;;;13.73;65.42;100869.56;5026613;28;20054;-77
2022/10/04 07:31:50;;;;;;;5.85;2.72;;;;;;;13.59;65.85;100863.50;4997075;28;20529;-75
2022/10/04 07:34:26;;;;;;;7.72;1.80;;;;;;;13.94;65.97;100879.09;5021926;28;20889;-76
2022/10/04 07:37:05;;;;;;;5.00;2.25;;;;;;;13.08;65.26;100787.25;5028558;28;20088;-77
2022/10/04 07:39:49;;;;;;;5.55;2.22;;;;;;;13.37;65.90;100792.41;5024234;28;20057;-77
2022/10/04 07:42:29;;;;;;;7.97;2.15;;;;;;;14.39;66.48;100910.47;5028598;28;20049;-75
2022/10/04 07:45:09;;;;;;;20.45;2.03;;;;;;;14.49;63.86;100913.03;5027264;28;20042;-78
2022/10/04 07:47:35;;;;;;;9.40;2.45;;;;;;;14.05;64.49;100813.94;5030005;28;20045;-76
2022/10/04 07:50:27;;;;;;;5.55;2.00;;;;;;;13.78;64.18;100777.22;5028027;28;20384;-76
2022/10/04 07:53:03;;;;;;;13.63;2.05;;;;;;;14.25;64.52;100837.53;5010271;28;20029;-77
2022/10/04 07:55:45;;;;;;;7.22;2.60;;;;;;;14.42;60.58;100921.91;5028664;28;20040;-75
2022/10/04 07:58:18;;;;;;;21.05;3.10;;;;;;;13.95;60.97;100788.50;5018357;28;20052;-75
2022/10/04 08:00:49;;;;;;;5.45;2.42;;;;;;;14.93;61.16;100905.63;5027733;28;20104;-76
2022/10/04 08:03:35;;;;;;;10.63;2.40;;;;;;;15.10;61.69;100906.34;5027241;28;20048;-77
2022/10/04 08:06:36;;;;;;;7.03;2.47;;;;;;;14.85;58.67;100910.13;5027698;28;20056;-77
2022/10/04 08:09:33;;;;;;;5.13;1.67;;;;;;;14.78;58.80;100909.28;5027814;28;20141;-75
2022/10/04 08:12:36;;;;;;;3.88;1.45;;;;;;;15.11;58.04;100889.56;5021585;28;20035;-76
2022/10/04 08:15:28;;;;;;;3.53;1.77;;;;;;;15.20;59.06;100907.97;5015434;28;20046;-75
2022/10/04 08:18:16;;;;;;;2.47;1.20;;;;;;;15.23;59.63;100903.53;4997143;28;20512;-76
2022/10/04 08:20:58;;;;;;;2.50;1.33;;;;;;;15.14;59.42;100875.44;5006011;28;20038;-76
2022/10/04 08:23:46;;;;;;;6.80;2.05;;;;;;;14.96;58.16;100906.47;4979057;28;20054;-76
2022/10/04 08:26:39;;;;;;;5.75;1.13;;;;;;;14.97;56.39;100915.28;5009355;28;20068;-77
2022/10/04 08:32:25;;;;;;;3.53;1.58;;;;;;;15.05;57.07;100907.25;5007296;28;20057;-75
2022/10/04 08:35:02;;;;;;;;;;;;;;;15.11;56.29;100915.13;5007153;28;20048;-76
2022/10/04 08:38:01;;;;;;;13.60;1.48;;;;;;;15.21;55.02;100914.13;5001486;28;19920;-75
2022/10/04 08:41:04;;;;;;;3.10;1.33;;;;;;;15.40;56.51;100909.50;5007006;28;20051;-77
2022/10/04 08:43:45;;;;;;;3.60;1.33;;;;;;;15.09;55.43;100919.56;5005108;28;20061;-76
2022/10/04 08:46:32;;;;;;;11.05;1.77;;;;;;;15.31;55.38;100910.50;5004967;28;20440;-75
2022/10/04 08:49:22;;;;;;;3.15;1.30;;;;;;;15.46;56.78;100905.94;4996379;28;20497;-76
2022/10/04 08:52:09;;;;;;;3.75;1.00;;;;;;;15.51;57.01;100909.38;5000686;28;20046;-74
2022/10/04 08:55:10;;;;;;;2.83;0.98;;;;;;;15.47;55.08;100908.53;4993769;28;20030;-75
2022/10/04 08:58:13;;;;;;;4.00;1.27;;;;;;;15.55;54.09;100919.91;5006743;28;20046;-76
2022/10/04 09:01:04;;;;;;;1.92;0.82;;;;;;;15.69;53.52;100924.16;4985215;28;20049;-77
2022/10/04 09:03:45;;;;;;;3.20;0.80;;;;;;;15.69;52.49;100929.44;5000335;28;20545;-76
2022/10/04 09:06:37;;;;;;;3.67;0.85;;;;;;;15.57;52.78;100922.53;5005055;28;20069;-76
2022/10/04 09:09:34;;;;;;;5.00;1.63;;;;;;;15.84;52.73;100926.63;5009390;28;20129;-76
2022/10/04 09:12:31;;;;;;;2.08;1.05;;;;;;;15.79;51.79;100931.97;4998288;28;20056;-77
2022/10/04 09:15:29;;;;;;;5.32;1.80;;;;;;;15.77;51.22;100930.25;5013821;28;20059;-75
2022/10/04 09:18:07;;;;;;;5.70;1.40;;;;;;;15.94;53.33;100935.31;5024898;28;20042;-77
2022/10/04 09:20:33;;;;;;;2.90;1.15;;;;;;;15.75;50.68;100930.25;5022743;28;20281;-74
2022/10/04 09:23:15;;;;;;;2.97;1.20;;;;;;;15.78;51.71;100931.97;5025729;28;20481;-76
2022/10/04 09:26:15;;;;;;;7.00;1.55;;;;;;;15.67;51.41;100937.41;5025950;28;20034;-76
2022/10/04 09:28:49;;;;;;;2.40;1.30;;;;;;;16.06;51.79;100934.25;5026049;28;20372;-76
2022/10/04 09:31:57;;;;;;;3.00;1.40;;;;;;;16.23;51.48;100933.13;5026288;28;20034;-77
2022/10/04 09:34:44;;;;;;;4.70;1.58;;;;;;;16.11;49.97;100928.03;5009360;28;20068;-75
2022/10/04 09:37:28;;;;;;;3.13;0.90;;;;;;;15.57;51.41;100909.31;5024029;28;20053;-74
2022/10/04 09:40:34;;;;;;;4.13;1.25;;;;;;;15.95;50.89;100930.00;5011787;28;20157;-76
2022/10/04 09:43:16;;;;;;;13.27;1.67;;;;;;;15.78;51.83;100934.63;5023430;28;20095;-77
2022/10/04 09:45:53;;;;;;;2.00;0.80;;;;;;;15.95;50.07;100935.28;5025428;28;20095;-76
2022/10/04 09:48:24;;;;;;;4.22;1.33;;;;;;;16.04;49.96;100919.28;5025869;28;20046;-75
2022/10/04 09:51:12;;;;;;;4.00;1.50;;;;;;;16.15;49.75;100926.19;5008052;28;20038;-76
2022/10/04 09:54:09;;;;;;;6.20;1.50;;;;;;;15.85;50.02;100938.06;5025227;28;20550;-77
2022/10/04 09:56:58;;;;;;;1.90;0.85;;;;;;;16.20;49.96;100934.94;5010403;28;20057;-75
2022/10/04 09:59:52;;;;;;;1.85;1.15;;;;;;;16.09;50.07;100929.81;5001992;28;20083;-76
2022/10/04 10:02:39;;;;;;;2.30;0.88;;;;;;;15.97;51.09;100930.00;5025720;28;20045;-75
2022/10/04 10:05:15;;;;;;;5.07;1.48;;;;;;;15.82;50.67;100913.41;5025815;28;20042;-76
2022/10/04 10:07:51;;;;;;;4.70;1.20;;;;;;;16.19;49.35;100938.50;5029360;28;20022;-75
2022/10/04 10:13:56;;;;;;;2.03;0.93;;;;;;;16.41;48.98;100942.56;5026888;28;20396;-75
2022/10/04 10:16:25;;;;;;;2.22;1.10;;;;;;;16.65;49.76;100941.28;5028413;28;20065;-76
2022/10/04 10:19:13;;;;;;;3.00;0.50;;;;;;;16.22;48.94;100941.97;5010828;28;20115;-76
2022/10/04 10:21:57;;;;;;;3.22;0.90;;;;;;;15.49;49.40;100835.34;5028847;28;20660;-76
2022/10/04 10:24:44;;;;;;;3.38;1.27;;;;;;;16.31;50.00;100938.28;5029166;28;20052;-76
2022/10/04 10:27:25;;;;;;;5.70;1.08;;;;;;;16.28;50.35;100943.66;5029066;28;20174;-76
2022/10/04 10:29:58;;;;;;;3.00;1.23;;;;;;;16.34;49.66;100945.31;5028958;28;20053;-75
2022/10/04 10:32:35;;;;;;;2.80;1.38;;;;;;;16.45;47.67;100944.25;5010731;28;20045;-76
2022/10/04 10:35:13;;;;;;;3.05;1.40;;;;;;;16.62;48.99;100946.66;5028682;28;20069;-76
2022/10/04 10:37:49;;;;;;;3.13;1.27;;;;;;;16.57;50.06;100929.94;5010756;28;20049;-76
2022/10/04 10:40:35;;;;;;;4.38;1.23;;;;;;;16.85;49.28;100937.47;5029450;28;20036;-76
2022/10/04 10:43:17;;;;;;;9.32;1.20;;;;;;;16.16;51.50;100830.84;5010529;28;20037;-76
2022/10/04 10:45:58;;;;;;;3.25;1.38;;;;;;;16.93;50.44;100942.63;5022093;28;20037;-75
2022/10/04 10:48:26;;;;;;;4.85;1.73;;;;;;;17.01;49.51;100944.22;5026915;28;20045;-75
2022/10/04 10:51:30;;;;;;;1.80;1.08;;;;;;;16.93;48.70;100942.63;5028548;28;20147;-76
2022/10/04 10:54:29;;;;;;;6.00;1.52;;;;;;;17.10;48.59;100935.25;5023986;28;20037;-76
2022/10/04 10:57:33;;;;;;;10.88;1.33;;;;;;;16.95;49.08;100907.25;5017090;28;20054;-76
2022/10/04 11:00:16;;;;;;;4.82;1.58;;;;;;;16.41;48.05;100863.13;5027920;28;20052;-75
2022/10/04 11:02:53;;;;;;;;;;;;;;;17.08;47.49;100937.06;5018940;28;20049;-75
2022/10/04 11:06:00;;;;;;;12.50;1.85;;;;;;;16.98;48.13;100933.69;5027219;28;19960;-75
2022/10/04 11:08:36;;;;;;;5.70;1.50;;;;;;;17.01;48.68;100930.13;5011226;28;20144;-77
2022/10/04 11:11:14;;;;;;;3.25;1.15;;;;;;;16.73;48.27;100835.16;5007969;28;20102;-76
2022/10/04 11:14:12;;;;;;;11.45;1.73;;;;;;;17.48;48.16;100934.50;5030879;28;20053;-74
2022/10/04 11:17:00;;;;;;;3.15;1.48;;;;;;;17.36;49.09;100933.88;5023385;28;20120;-77
2022/10/04 11:19:40;;;;;;;2.80;1.35;;;;;;;16.50;47.16;100756.09;5017679;28;20576;-75
2022/10/04 11:22:58;;;;;;;9.38;1.92;;;;;;;17.50;48.78;100940.66;5010330;28;20057;-76
2022/10/04 11:25:58;;;;;;;8.80;2.25;;;;;;;17.29;46.96;100936.63;4966563;28;20060;-74
2022/10/04 11:28:26;;;;;;;4.50;1.95;;;;;;;17.32;45.89;100933.03;5017178;28;20066;-76
2022/10/04 11:31:01;;;;;;;2.80;1.58;;;;;;;17.16;44.90;100931.59;5011578;28;20128;-77
2022/10/04 11:33:54;;;;;;;11.32;2.00;;;;;;;17.20;45.72;100944.75;5011428;28;20055;-75
2022/10/04 11:36:47;;;;;;;2.05;1.33;;;;;;;17.24;47.74;100953.56;5027885;28;20052;-76
2022/10/04 11:39:22;;;;;;;6.20;1.60;;;;;;;17.05;44.63;100846.97;5027774;28;20072;-75
2022/10/04 11:41:58;;;;;;;9.15;1.33;;;;;;;17.37;45.15;100943.56;5020080;28;20077;-75
2022/10/04 11:44:29;;;;;;;8.43;1.15;;;;;;;17.26;42.85;100944.66;5019122;28;20077;-75
2022/10/04 11:47:29;;;;;;;3.95;1.75;;;;;;;16.59;44.79;100848.66;5028136;28;20033;-75
2022/10/04 11:50:33;;;;;;;4.53;1.15;;;;;;;17.24;43.23;100937.63;4990566;28;20156;-76
2022/10/04 11:53:12;;;;;;;2.45;1.08;;;;;;;17.14;43.88;100934.28;4999944;28;20049;-76
2022/10/04 11:55:44;;;;;;;6.68;1.55;;;;;;;17.24;44.13;100938.50;5026970;28;20606;-75
2022/10/04 11:58:37;;;;;;;3.50;1.02;;;;;;;17.57;46.26;100935.22;5021401;28;20099;-75
2022/10/04 12:01:18;;;;;;;3.78;1.50;;;;;;;17.40;44.90;100930.28;5026548;28;20111;-76
2022/10/04 12:04:11;;;;;;;2.95;1.60;;;;;;;17.52;45.75;100932.66;5026448;28;20067;-76
2022/10/04 12:07:25;;;;;;;3.58;1.63;;;;;;;17.66;44.40;100937.69;5026990;28;20067;-77
2022/10/04 12:10:12;;;;;;;11.35;3.40;;;;;;;17.93;46.04;100929.19;5013462;28;20046;-76
2022/10/04 12:13:11;;;;;;;10.10;1.90;;;;;;;17.76;44.02;100939.22;5004711;28;20049;-77
2022/10/04 12:15:48;;;;;;;2.63;1.42;;;;;;;17.76;45.62;100930.41;5013697;28;20054;-78
2022/10/04 12:18:26;;;;;;;2.67;1.35;;;;;;;17.60;44.66;100943.97;5006174;28;20058;-76
2022/10/04 12:21:19;;;;;;;4.85;1.15;;;;;;;17.35;43.61;100940.97;5002459;28;20390;-75
2022/10/04 12:24:06;;;;;;;3.50;1.67;;;;;;;17.35;44.20;100940.97;4997982;28;20580;-76
2022/10/04 12:26:47;;;;;;;1.83;1.00;;;;;;;17.53;44.14;100937.06;5002541;28;20089;-75
2022/10/04 12:29:49;;;;;;;3.95;1.42;;;;;;;17.38;48.32;100943.56;5006852;28;20137;-76
2022/10/04 12:32:18;;;;;;;2.78;1.40;;;;;;;17.43;45.07;100935.50;5006976;28;20049;-76
2022/10/04 12:34:59;;;;;;;5.43;1.92;;;;;;;17.69;45.10;100943.78;5006439;28;20030;-75